»·PEaware :: N145EA KLAX-KPHX

N145EA :: KLAX-KPHX

FLIGHT INFORMATION

Flight Status: Arrived
Operator: Privately registered:
United States
More flights under this callsign
Pilot: Adam K. (2650)
Aircraft: ECLIPSE 500
(EA50)
More flights by this aircraft type
Origin: KLAX Los Angeles Intl
United States
Destination: KPHX Phoenix Sky Harbor Intl
United States
More flights between these airports :: More routes between these airports
Route: DOTSS2 CNERY BLH HYDRR1
File this flight plan on PilotEdge
Remarks:
Altitude:
(Current/Filed)
25,000ft
Speed:
(Current/Filed)
325kts
Departed: 25-Sep-17 02:25 PM
Arrived: 25-Sep-17 03:38 PM
Distance/Time
Traveled:
320nm/1:13
Distance/Time
To Go:
Arrived

Flight Plot

Page will automatically refresh every two minutes.

Flight plan parsing failed; only flown route is shown


Map Options




Map Legend


Flown Route
Filed Route
Departure Airport
Arrival Airport
Navaid (VOR, NDB)
Fix

Horizontal Profiles

Position Reports

Time Latitude Longitude Heading Altitude Ground
Speed
25-Sep-17 14:04 33.933885 -118.395155 92 128ft 0kts
25-Sep-17 14:05 33.933885 -118.395155 92 128ft 0kts
25-Sep-17 14:06 33.933885 -118.395155 92 128ft 0kts
25-Sep-17 14:07 33.933885 -118.395155 92 128ft 0kts
25-Sep-17 14:08 33.933885 -118.395155 92 128ft 0kts
25-Sep-17 14:09 33.933885 -118.395155 92 128ft 0kts
25-Sep-17 14:10 33.933885 -118.395155 92 128ft 0kts
25-Sep-17 14:11 33.933885 -118.395155 92 128ft 0kts
25-Sep-17 14:12 33.933885 -118.395155 92 128ft 0kts
25-Sep-17 14:13 33.933885 -118.395155 92 128ft 0kts
25-Sep-17 14:14 33.933885 -118.395155 92 128ft 0kts
25-Sep-17 14:15 33.933885 -118.395155 92 128ft 0kts
25-Sep-17 14:16 33.933885 -118.395155 92 128ft 0kts
25-Sep-17 14:17 33.933885 -118.395155 92 128ft 0kts
25-Sep-17 14:18 33.933885 -118.395155 92 128ft 0kts
25-Sep-17 14:19 33.933885 -118.395155 92 128ft 0kts
25-Sep-17 14:20 33.933885 -118.395155 92 128ft 0kts
25-Sep-17 14:21 33.933885 -118.395155 92 128ft 0kts
25-Sep-17 14:22 33.933885 -118.395155 92 128ft 0kts
25-Sep-17 14:23 33.933885 -118.395155 92 128ft 0kts
25-Sep-17 14:24 33.934748 -118.393725 54 128ft 15kts
25-Sep-17 14:25 33.935398 -118.389610 87 128ft 19kts
25-Sep-17 14:26 33.935938 -118.384832 83 128ft 12kts
25-Sep-17 14:27 33.936441 -118.382778 3 128ft 0kts
25-Sep-17 14:28 33.936441 -118.382778 3 128ft 0kts
25-Sep-17 14:29 33.937241 -118.384245 260 128ft 42kts
25-Sep-17 14:30 33.933557 -118.420912 262 1406ft 154kts
25-Sep-17 14:31 33.915928 -118.475375 235 3226ft 176kts
25-Sep-17 14:32 33.884806 -118.524197 234 5104ft 191kts
25-Sep-17 14:33 33.842418 -118.555541 172 7030ft 211kts
25-Sep-17 14:34 33.783523 -118.542480 169 8974ft 221kts
25-Sep-17 14:35 33.720671 -118.526706 166 10941ft 246kts
25-Sep-17 14:36 33.683537 -118.463151 109 12872ft 248kts
25-Sep-17 14:37 33.658936 -118.387836 106 13740ft 210kts
25-Sep-17 14:38 33.645929 -118.321137 86 15599ft 220kts
25-Sep-17 14:39 33.645105 -118.246029 84 17400ft 230kts
25-Sep-17 14:40 33.644762 -118.168388 83 19196ft 237kts
25-Sep-17 14:41 33.644601 -118.088541 82 20991ft 244kts
25-Sep-17 14:42 33.644474 -118.006385 81 22757ft 251kts
25-Sep-17 14:43 33.644534 -117.915020 82 23036ft 293kts
25-Sep-17 14:44 33.644047 -117.824912 81 24766ft 264kts
25-Sep-17 14:45 33.627224 -117.728267 98 24876ft 327kts
25-Sep-17 14:46 33.600375 -117.617466 99 24873ft 361kts
25-Sep-17 14:47 33.571053 -117.498798 99 24885ft 380kts
25-Sep-17 14:48 33.540690 -117.376734 99 24896ft 389kts
25-Sep-17 14:49 33.509929 -117.253432 99 24893ft 393kts
25-Sep-17 14:50 33.503990 -117.126065 85 24892ft 382kts
25-Sep-17 14:51 33.501901 -116.999102 85 24898ft 387kts
25-Sep-17 14:52 33.499974 -116.871321 86 24908ft 392kts
25-Sep-17 14:53 33.498137 -116.762070 86 24908ft 393kts
25-Sep-17 14:54 33.495902 -116.631307 86 24908ft 394kts
25-Sep-17 14:55 33.493570 -116.500251 86 24881ft 394kts
25-Sep-17 14:56 33.491388 -116.369227 86 24855ft 394kts
25-Sep-17 14:57 33.489398 -116.238226 86 24853ft 394kts
25-Sep-17 14:58 33.487284 -116.107317 86 24853ft 394kts
25-Sep-17 14:59 33.503298 -115.980880 67 24854ft 383kts
25-Sep-17 15:00 33.537240 -115.860433 66 24853ft 382kts
25-Sep-17 15:01 33.572072 -115.739992 66 24853ft 382kts
25-Sep-17 15:02 33.606889 -115.619832 66 24853ft 383kts
25-Sep-17 15:03 33.614633 -115.490711 85 24853ft 393kts
25-Sep-17 15:04 33.612202 -115.359656 86 24858ft 393kts
25-Sep-17 15:05 33.609014 -115.228288 87 24867ft 395kts
25-Sep-17 15:06 33.605790 -115.096449 89 24870ft 400kts
25-Sep-17 15:07 33.602177 -114.962351 91 24872ft 404kts
25-Sep-17 15:08 33.598089 -114.827528 91 24872ft 405kts
25-Sep-17 15:09 33.582541 -114.694334 102 24872ft 405kts
25-Sep-17 15:10 33.557445 -114.562779 102 24872ft 406kts
25-Sep-17 15:11 33.531824 -114.431377 102 24873ft 406kts
25-Sep-17 15:12 33.505944 -114.299746 103 24871ft 406kts
25-Sep-17 15:13 33.479940 -114.168357 103 24868ft 406kts
25-Sep-17 15:14 33.453759 -114.037041 103 24859ft 406kts
25-Sep-17 15:15 33.427429 -113.905827 103 24853ft 406kts
25-Sep-17 15:16 33.401283 -113.775529 103 24854ft 406kts
25-Sep-17 15:17 33.374866 -113.644945 103 24850ft 406kts
25-Sep-17 15:18 33.348255 -113.514637 103 22801ft 388kts
25-Sep-17 15:19 33.325426 -113.391676 100 21803ft 380kts
25-Sep-17 15:20 33.303949 -113.268016 101 20008ft 370kts
25-Sep-17 15:21 33.285832 -113.149240 99 18090ft 358kts
25-Sep-17 15:22 33.276029 -113.033198 88 16080ft 346kts
25-Sep-17 15:23 33.278068 -112.926088 86 14082ft 315kts
25-Sep-17 15:24 33.280674 -112.824190 84 12076ft 299kts
25-Sep-17 15:25 33.289458 -112.728443 83 11030ft 291kts
25-Sep-17 15:26 33.298444 -112.631358 83 11027ft 294kts
25-Sep-17 15:27 33.307399 -112.534623 83 11027ft 294kts
25-Sep-17 15:28 33.316337 -112.437537 83 11030ft 293kts
25-Sep-17 15:29 33.325242 -112.340221 83 10682ft 303kts
25-Sep-17 15:30 33.333721 -112.248022 84 9080ft 239kts
25-Sep-17 15:31 33.340341 -112.172923 82 9031ft 243kts
25-Sep-17 15:32 33.347072 -112.092556 88 8931ft 249kts
25-Sep-17 15:33 33.346637 -112.009823 89 7227ft 241kts
25-Sep-17 15:34 33.346360 -111.929399 89 6497ft 260kts
25-Sep-17 15:35 33.348609 -111.848485 88 4686ft 232kts
25-Sep-17 15:36 33.381892 -111.799560 349 3079ft 219kts
25-Sep-17 15:37 33.428276 -111.833352 277 3039ft 218kts
25-Sep-17 15:38 33.428715 -111.895701 269 2889ft 153kts
25-Sep-17 15:39 33.428797 -111.942731 269 2114ft 114kts
25-Sep-17 15:40 33.428822 -111.978838 269 1545ft 106kts
25-Sep-17 15:41 33.428815 -112.012542 269 1138ft 54kts
25-Sep-17 15:42 33.427753 -112.017515 266 1138ft 13kts
25-Sep-17 15:43 33.427422 -112.021035 196 1138ft 5kts
25-Sep-17 15:44 33.425698 -112.021064 92 1138ft 0kts
25-Sep-17 15:45 33.425698 -112.021064 92 1138ft 0kts

Navigation Log

Ident Type
Flight plan parsing failed, navigation log unavailable